sensor_id;sensor_type;location;lat;lon;timestamp;pressure;altitude;pressure_sealevel;temperature;humidity
57086;BME280;42964;42.910;23.792;2023-05-23T00:00:53;97527.97;;;11.79;97.80
57086;BME280;42964;42.910;23.792;2023-05-23T00:05:51;97536.66;;;11.73;98.19
57086;BME280;42964;42.910;23.792;2023-05-23T00:10:50;97488.50;;;11.37;98.24
57086;BME280;42964;42.910;23.792;2023-05-23T00:15:49;97528.25;;;11.46;98.75
57086;BME280;42964;42.910;23.792;2023-05-23T00:20:48;97530.91;;;11.37;99.47
57086;BME280;42964;42.910;23.792;2023-05-23T00:25:49;97534.44;;;11.30;100.00
57086;BME280;42964;42.910;23.792;2023-05-23T00:30:51;97532.66;;;11.35;99.14
57086;BME280;42964;42.910;23.792;2023-05-23T00:35:50;97525.75;;;11.31;99.24
57086;BME280;42964;42.910;23.792;2023-05-23T00:40:49;97526.63;;;11.32;99.39
57086;BME280;42964;42.910;23.792;2023-05-23T00:45:48;97529.19;;;11.36;99.12
57086;BME280;42964;42.910;23.792;2023-05-23T00:50:47;97538.69;;;11.39;98.36
57086;BME280;42964;42.910;23.792;2023-05-23T00:55:46;97530.09;;;11.32;98.61
57086;BME280;42964;42.910;23.792;2023-05-23T01:00:45;97528.38;;;11.30;98.38
57086;BME280;42964;42.910;23.792;2023-05-23T01:05:47;97517.16;;;11.23;98.56
57086;BME280;42964;42.910;23.792;2023-05-23T01:10:46;97506.06;;;11.02;98.32
57086;BME280;42964;42.910;23.792;2023-05-23T01:16:08;97523.38;;;11.03;99.15
57086;BME280;42964;42.910;23.792;2023-05-23T01:21:21;97518.19;;;11.03;98.76
57086;BME280;42964;42.910;23.792;2023-05-23T01:26:31;97525.97;;;11.03;98.43
57086;BME280;42964;42.910;23.792;2023-05-23T01:31:31;97491.41;;;10.86;98.38
57086;BME280;42964;42.910;23.792;2023-05-23T01:36:33;97513.06;;;10.90;98.07
57086;BME280;42964;42.910;23.792;2023-05-23T01:41:35;97515.63;;;10.97;98.41
57086;BME280;42964;42.910;23.792;2023-05-23T01:46:34;97500.06;;;10.91;98.25
57086;BME280;42964;42.910;23.792;2023-05-23T01:51:37;97520.84;;;10.94;98.68
57086;BME280;42964;42.910;23.792;2023-05-23T01:56:36;97494.03;;;10.81;98.92
57086;BME280;42964;42.910;23.792;2023-05-23T02:01:36;97511.34;;;10.92;99.63
57086;BME280;42964;42.910;23.792;2023-05-23T02:06:36;97505.25;;;10.93;98.79
57086;BME280;42964;42.910;23.792;2023-05-23T02:11:35;97513.91;;;10.96;99.58
57086;BME280;42964;42.910;23.792;2023-05-23T02:16:34;97514.72;;;11.00;99.76
57086;BME280;42964;42.910;23.792;2023-05-23T02:21:34;97519.94;;;11.01;99.89
57086;BME280;42964;42.910;23.792;2023-05-23T02:26:33;97521.59;;;11.09;100.00
57086;BME280;42964;42.910;23.792;2023-05-23T02:31:32;97515.56;;;11.07;99.81
57086;BME280;42964;42.910;23.792;2023-05-23T02:36:31;97518.25;;;10.85;100.00
57086;BME280;42964;42.910;23.792;2023-05-23T02:41:31;97488.13;;;10.56;100.00
57086;BME280;42964;42.910;23.792;2023-05-23T02:46:30;97523.47;;;10.88;100.00
57086;BME280;42964;42.910;23.792;2023-05-23T02:51:29;97524.31;;;10.90;100.00
57086;BME280;42964;42.910;23.792;2023-05-23T02:56:29;97520.78;;;11.00;100.00
57086;BME280;42964;42.910;23.792;2023-05-23T03:01:28;97513.00;;;11.03;100.00
57086;BME280;42964;42.910;23.792;2023-05-23T03:06:27;97525.91;;;11.13;100.00
57086;BME280;42964;42.910;23.792;2023-05-23T03:11:26;97518.94;;;11.18;100.00
57086;BME280;42964;42.910;23.792;2023-05-23T03:16:27;97514.53;;;11.29;100.00
57086;BME280;42964;42.910;23.792;2023-05-23T03:21:26;97508.50;;;11.27;100.00
57086;BME280;42964;42.910;23.792;2023-05-23T03:26:25;97520.47;;;11.40;100.00
57086;BME280;42964;42.910;23.792;2023-05-23T03:31:24;97517.84;;;11.46;100.00
57086;BME280;42964;42.910;23.792;2023-05-23T03:36:23;97508.22;;;11.58;100.00
57086;BME280;42964;42.910;23.792;2023-05-23T03:41:23;97527.13;;;11.75;100.00
57086;BME280;42964;42.910;23.792;2023-05-23T03:46:22;97485.78;;;11.51;99.74
57086;BME280;42964;42.910;23.792;2023-05-23T03:51:21;97530.66;;;11.70;99.42
57086;BME280;42964;42.910;23.792;2023-05-23T03:56:21;97537.84;;;11.35;100.00
57086;BME280;42964;42.910;23.792;2023-05-23T04:01:20;97549.19;;;11.22;100.00
57086;BME280;42964;42.910;23.792;2023-05-23T04:06:19;97548.41;;;11.14;100.00
57086;BME280;42964;42.910;23.792;2023-05-23T04:11:20;97550.06;;;11.24;100.00
57086;BME280;42964;42.910;23.792;2023-05-23T04:16:20;97555.19;;;11.33;100.00
57086;BME280;42964;42.910;23.792;2023-05-23T04:21:21;97563.00;;;11.32;100.00
57086;BME280;42964;42.910;23.792;2023-05-23T04:26:20;97559.47;;;11.42;100.00
57086;BME280;42964;42.910;23.792;2023-05-23T04:31:20;97540.31;;;11.52;100.00
57086;BME280;42964;42.910;23.792;2023-05-23T04:36:19;97561.69;;;11.86;100.00
57086;BME280;42964;42.910;23.792;2023-05-23T04:41:21;97546.81;;;12.01;99.03
57086;BME280;42964;42.910;23.792;2023-05-23T04:46:20;97557.84;;;12.24;99.45
57086;BME280;42964;42.910;23.792;2023-05-23T04:51:23;97549.09;;;12.32;98.01
57086;BME280;42964;42.910;23.792;2023-05-23T04:56:22;97553.25;;;12.49;98.39
57086;BME280;42964;42.910;23.792;2023-05-23T05:01:25;97535.28;;;12.25;95.96
57086;BME280;42964;42.910;23.792;2023-05-23T05:06:24;97561.41;;;12.14;96.01
57086;BME280;42964;42.910;23.792;2023-05-23T05:11:22;97564.75;;;12.28;97.25
57086;BME280;42964;42.910;23.792;2023-05-23T05:16:21;97548.84;;;12.56;96.61
57086;BME280;42964;42.910;23.792;2023-05-23T05:21:20;97550.44;;;12.66;95.82
57086;BME280;42964;42.910;23.792;2023-05-23T05:26:19;97559.44;;;13.07;95.68
57086;BME280;42964;42.910;23.792;2023-05-23T05:31:19;97544.91;;;13.48;94.34
57086;BME280;42964;42.910;23.792;2023-05-23T05:36:18;97547.63;;;13.96;93.28
57086;BME280;42964;42.910;23.792;2023-05-23T05:41:17;97543.44;;;14.36;90.49
57086;BME280;42964;42.910;23.792;2023-05-23T05:46:16;97552.31;;;14.26;88.80
57086;BME280;42964;42.910;23.792;2023-05-23T05:51:15;97552.34;;;14.24;87.43
57086;BME280;42964;42.910;23.792;2023-05-23T05:56:15;97550.94;;;14.05;88.62
57086;BME280;42964;42.910;23.792;2023-05-23T06:01:14;97546.34;;;14.19;88.43
57086;BME280;42964;42.910;23.792;2023-05-23T06:06:13;97551.69;;;14.58;88.76
57086;BME280;42964;42.910;23.792;2023-05-23T06:11:12;97551.50;;;14.67;86.66
57086;BME280;42964;42.910;23.792;2023-05-23T06:16:11;97559.09;;;14.79;86.58
57086;BME280;42964;42.910;23.792;2023-05-23T06:21:10;97567.31;;;15.03;85.60
57086;BME280;42964;42.910;23.792;2023-05-23T06:26:09;97566.97;;;15.18;85.86
57086;BME280;42964;42.910;23.792;2023-05-23T06:31:08;97553.00;;;15.19;84.14
57086;BME280;42964;42.910;23.792;2023-05-23T06:36:07;97524.75;;;14.98;84.75
57086;BME280;42964;42.910;23.792;2023-05-23T06:41:06;97533.38;;;15.01;85.42
57086;BME280;42964;42.910;23.792;2023-05-23T06:46:05;97510.84;;;14.96;85.12
57086;BME280;42964;42.910;23.792;2023-05-23T06:51:04;97547.84;;;15.16;85.59
57086;BME280;42964;42.910;23.792;2023-05-23T06:56:04;97548.38;;;15.31;86.06
57086;BME280;42964;42.910;23.792;2023-05-23T07:01:03;97544.50;;;15.47;85.36
57086;BME280;42964;42.910;23.792;2023-05-23T07:06:02;97537.94;;;15.66;85.26
57086;BME280;42964;42.910;23.792;2023-05-23T07:11:02;97538.28;;;15.88;85.06
57086;BME280;42964;42.910;23.792;2023-05-23T07:16:01;97530.25;;;15.96;85.01
57086;BME280;42964;42.910;23.792;2023-05-23T07:21:00;97495.72;;;16.15;85.62
57086;BME280;42964;42.910;23.792;2023-05-23T07:26:00;97524.28;;;16.86;84.10
57086;BME280;42964;42.910;23.792;2023-05-23T07:31:00;97513.03;;;17.11;81.21
57086;BME280;42964;42.910;23.792;2023-05-23T07:35:59;97510.63;;;17.31;79.94
57086;BME280;42964;42.910;23.792;2023-05-23T07:40:58;97506.81;;;17.42;79.84
57086;BME280;42964;42.910;23.792;2023-05-23T07:45:57;97502.47;;;17.67;78.66
57086;BME280;42964;42.910;23.792;2023-05-23T07:50:56;97502.69;;;17.88;79.14
57086;BME280;42964;42.910;23.792;2023-05-23T07:55:55;97501.25;;;18.04;76.21
57086;BME280;42964;42.910;23.792;2023-05-23T08:00:54;97483.84;;;18.50;76.56
57086;BME280;42964;42.910;23.792;2023-05-23T08:05:54;97494.84;;;18.60;74.03
57086;BME280;42964;42.910;23.792;2023-05-23T08:10:53;97451.69;;;18.66;71.79
57086;BME280;42964;42.910;23.792;2023-05-23T08:15:52;97490.56;;;19.05;68.84
57086;BME280;42964;42.910;23.792;2023-05-23T08:20:52;97483.00;;;19.17;68.99
57086;BME280;42964;42.910;23.792;2023-05-23T08:25:53;97475.59;;;19.27;66.19
57086;BME280;42964;42.910;23.792;2023-05-23T08:30:52;97314.22;;;18.64;65.17
57086;BME280;42964;42.910;23.792;2023-05-23T08:35:51;97478.69;;;20.01;62.77
57086;BME280;42964;42.910;23.792;2023-05-23T08:40:50;97472.84;;;20.55;63.68
57086;BME280;42964;42.910;23.792;2023-05-23T08:45:50;97469.84;;;20.81;58.71
57086;BME280;42964;42.910;23.792;2023-05-23T08:50:49;97459.78;;;21.08;58.40
57086;BME280;42964;42.910;23.792;2023-05-23T08:55:49;97462.88;;;21.17;57.07
57086;BME280;42964;42.910;23.792;2023-05-23T09:00:52;97472.06;;;21.46;58.32
57086;BME280;42964;42.910;23.792;2023-05-23T09:05:54;97467.31;;;21.35;56.03
57086;BME280;42964;42.910;23.792;2023-05-23T09:10:54;97455.50;;;21.42;54.33
57086;BME280;42964;42.910;23.792;2023-05-23T09:20:59;97435.44;;;21.21;55.06
57086;BME280;42964;42.910;23.792;2023-05-23T09:26:01;97450.72;;;21.85;55.55
57086;BME280;42964;42.910;23.792;2023-05-23T09:31:02;97420.72;;;21.86;52.71
57086;BME280;42964;42.910;23.792;2023-05-23T09:36:02;97449.50;;;22.26;52.31
57086;BME280;42964;42.910;23.792;2023-05-23T09:41:02;97443.88;;;22.32;51.81
57086;BME280;42964;42.910;23.792;2023-05-23T09:46:09;97436.38;;;22.24;49.22
57086;BME280;42964;42.910;23.792;2023-05-23T09:51:08;97436.38;;;22.24;48.29
57086;BME280;42964;42.910;23.792;2023-05-23T09:56:09;97432.84;;;22.73;46.96
57086;BME280;42964;42.910;23.792;2023-05-23T10:01:13;97434.44;;;22.93;46.38
57086;BME280;42964;42.910;23.792;2023-05-23T10:16:19;97424.88;;;23.52;44.17
57086;BME280;42964;42.910;23.792;2023-05-23T10:21:29;97416.25;;;23.02;44.04
57086;BME280;42964;42.910;23.792;2023-05-23T10:26:30;97417.63;;;22.94;45.01
57086;BME280;42964;42.910;23.792;2023-05-23T10:31:30;97313.00;;;22.41;43.71
57086;BME280;42964;42.910;23.792;2023-05-23T10:36:36;97398.56;;;23.03;43.56
57086;BME280;42964;42.910;23.792;2023-05-23T10:41:43;97404.56;;;22.91;43.09
57086;BME280;42964;42.910;23.792;2023-05-23T10:46:54;97400.25;;;23.04;45.22
57086;BME280;42964;42.910;23.792;2023-05-23T10:51:55;97392.63;;;23.30;42.34
57086;BME280;42964;42.910;23.792;2023-05-23T10:57:04;97397.25;;;23.87;43.52
57086;BME280;42964;42.910;23.792;2023-05-23T11:02:11;97392.25;;;24.25;40.27
57086;BME280;42964;42.910;23.792;2023-05-23T11:07:30;97387.16;;;24.22;39.94
57086;BME280;42964;42.910;23.792;2023-05-23T11:12:40;97372.97;;;24.64;40.82
57086;BME280;42964;42.910;23.792;2023-05-23T11:17:49;97380.97;;;24.92;36.24
57086;BME280;42964;42.910;23.792;2023-05-23T11:22:53;97358.06;;;24.76;36.99
57086;BME280;42964;42.910;23.792;2023-05-23T11:27:53;97355.56;;;25.15;36.54
57086;BME280;42964;42.910;23.792;2023-05-23T11:32:53;97367.06;;;24.88;36.81
57086;BME280;42964;42.910;23.792;2023-05-23T11:37:55;97373.56;;;23.98;38.44
57086;BME280;42964;42.910;23.792;2023-05-23T11:42:55;97365.72;;;23.96;36.79
57086;BME280;42964;42.910;23.792;2023-05-23T11:47:54;97353.44;;;24.38;34.30
57086;BME280;42964;42.910;23.792;2023-05-23T11:52:54;97351.81;;;24.77;35.38
57086;BME280;42964;42.910;23.792;2023-05-23T11:57:54;97354.66;;;24.88;34.11
57086;BME280;42964;42.910;23.792;2023-05-23T12:02:54;97348.72;;;24.56;32.95
57086;BME280;42964;42.910;23.792;2023-05-23T12:07:53;97329.63;;;24.78;33.03
57086;BME280;42964;42.910;23.792;2023-05-23T12:12:52;97333.03;;;24.53;32.13
57086;BME280;42964;42.910;23.792;2023-05-23T12:17:52;97329.72;;;24.35;31.89
57086;BME280;42964;42.910;23.792;2023-05-23T12:22:53;97308.78;;;24.45;32.26
57086;BME280;42964;42.910;23.792;2023-05-23T12:27:52;97329.88;;;24.61;30.33
57086;BME280;42964;42.910;23.792;2023-05-23T12:32:53;97318.06;;;24.79;29.06
57086;BME280;42964;42.910;23.792;2023-05-23T12:37:55;97308.91;;;24.98;29.39
57086;BME280;42964;42.910;23.792;2023-05-23T12:42:57;97301.91;;;24.97;30.34
57086;BME280;42964;42.910;23.792;2023-05-23T12:47:56;97293.69;;;24.87;28.23
57086;BME280;42964;42.910;23.792;2023-05-23T12:52:55;97289.69;;;24.94;29.32
57086;BME280;42964;42.910;23.792;2023-05-23T12:57:54;97282.81;;;24.77;29.61
57086;BME280;42964;42.910;23.792;2023-05-23T13:02:53;97278.03;;;24.97;30.52
57086;BME280;42964;42.910;23.792;2023-05-23T13:07:52;97280.06;;;25.19;30.79
57086;BME280;42964;42.910;23.792;2023-05-23T13:12:51;97271.69;;;25.38;31.49
57086;BME280;42964;42.910;23.792;2023-05-23T13:17:50;97269.16;;;25.49;31.06
57086;BME280;42964;42.910;23.792;2023-05-23T13:22:49;97265.53;;;25.50;31.34
57086;BME280;42964;42.910;23.792;2023-05-23T13:27:47;97244.09;;;25.66;30.94
57086;BME280;42964;42.910;23.792;2023-05-23T13:32:46;97257.03;;;25.45;31.05
57086;BME280;42964;42.910;23.792;2023-05-23T13:37:45;97245.66;;;25.30;29.60
57086;BME280;42964;42.910;23.792;2023-05-23T13:42:47;97251.44;;;25.62;30.35
57086;BME280;42964;42.910;23.792;2023-05-23T13:47:46;97244.81;;;25.81;30.07
57086;BME280;42964;42.910;23.792;2023-05-23T13:52:45;97252.16;;;25.64;29.63
57086;BME280;42964;42.910;23.792;2023-05-23T13:57:45;97242.28;;;25.53;30.87
57086;BME280;42964;42.910;23.792;2023-05-23T14:02:44;97252.72;;;25.57;31.08
57086;BME280;42964;42.910;23.792;2023-05-23T14:07:43;97250.47;;;25.63;31.61
57086;BME280;42964;42.910;23.792;2023-05-23T14:12:44;97250.47;;;25.50;30.74
57086;BME280;42964;42.910;23.792;2023-05-23T14:17:43;97239.31;;;25.58;30.57
57086;BME280;42964;42.910;23.792;2023-05-23T14:22:42;97249.13;;;25.58;31.44
57086;BME280;42964;42.910;23.792;2023-05-23T14:27:41;97248.97;;;25.59;30.57
57086;BME280;42964;42.910;23.792;2023-05-23T14:32:40;97219.53;;;25.37;30.47
57086;BME280;42964;42.910;23.792;2023-05-23T14:37:39;97251.94;;;25.16;30.47
57086;BME280;42964;42.910;23.792;2023-05-23T14:42:38;97245.56;;;25.06;30.72
57086;BME280;42964;42.910;23.792;2023-05-23T14:47:38;97247.47;;;25.04;29.78
57086;BME280;42964;42.910;23.792;2023-05-23T14:52:36;97242.69;;;25.09;28.58
57086;BME280;42964;42.910;23.792;2023-05-23T14:57:35;97239.50;;;25.04;29.35
57086;BME280;42964;42.910;23.792;2023-05-23T15:02:34;97232.91;;;24.97;29.36
57086;BME280;42964;42.910;23.792;2023-05-23T15:07:34;97199.69;;;24.64;29.28
57086;BME280;42964;42.910;23.792;2023-05-23T15:12:33;97242.56;;;24.98;28.69
57086;BME280;42964;42.910;23.792;2023-05-23T15:17:32;97232.00;;;24.83;28.84
57086;BME280;42964;42.910;23.792;2023-05-23T15:22:31;97234.59;;;24.70;29.41
57086;BME280;42964;42.910;23.792;2023-05-23T15:27:30;97222.75;;;24.76;30.17
57086;BME280;42964;42.910;23.792;2023-05-23T15:32:29;97234.19;;;24.77;30.26
57086;BME280;42964;42.910;23.792;2023-05-23T15:37:28;97233.28;;;24.51;31.42
57086;BME280;42964;42.910;23.792;2023-05-23T15:42:27;97230.13;;;24.31;31.24
57086;BME280;42964;42.910;23.792;2023-05-23T15:47:26;97225.84;;;24.43;31.83
57086;BME280;42964;42.910;23.792;2023-05-23T15:52:25;97224.91;;;24.30;31.85
57086;BME280;42964;42.910;23.792;2023-05-23T15:57:24;97192.66;;;24.23;32.33
57086;BME280;42964;42.910;23.792;2023-05-23T16:02:23;97224.56;;;24.21;32.27
57086;BME280;42964;42.910;23.792;2023-05-23T16:07:22;97226.91;;;24.12;33.08
57086;BME280;42964;42.910;23.792;2023-05-23T16:12:21;97220.66;;;23.71;33.06
57086;BME280;42964;42.910;23.792;2023-05-23T16:17:20;97231.16;;;23.73;34.15
57086;BME280;42964;42.910;23.792;2023-05-23T16:22:19;97190.69;;;23.56;34.91
57086;BME280;42964;42.910;23.792;2023-05-23T16:27:18;97235.22;;;23.78;35.04
57086;BME280;42964;42.910;23.792;2023-05-23T16:32:17;97237.78;;;23.80;34.40
57086;BME280;42964;42.910;23.792;2023-05-23T16:37:16;97246.19;;;23.72;34.78
57086;BME280;42964;42.910;23.792;2023-05-23T16:42:15;97256.34;;;23.66;35.61
57086;BME280;42964;42.910;23.792;2023-05-23T16:47:14;97254.63;;;23.64;35.83
57086;BME280;42964;42.910;23.792;2023-05-23T16:52:13;97265.91;;;23.54;35.78
57086;BME280;42964;42.910;23.792;2023-05-23T16:57:12;97257.84;;;23.11;36.17
57086;BME280;42964;42.910;23.792;2023-05-23T17:02:13;97268.91;;;23.03;35.99
57086;BME280;42964;42.910;23.792;2023-05-23T17:07:14;97241.56;;;22.72;36.88
57086;BME280;42964;42.910;23.792;2023-05-23T17:12:13;97271.69;;;22.70;36.30
57086;BME280;42964;42.910;23.792;2023-05-23T17:17:12;97276.03;;;22.55;37.22
57086;BME280;42964;42.910;23.792;2023-05-23T17:22:11;97276.50;;;22.31;37.37
57086;BME280;42964;42.910;23.792;2023-05-23T17:27:10;97273.38;;;22.09;37.41
57086;BME280;42964;42.910;23.792;2023-05-23T17:32:09;97275.69;;;21.97;38.36
57086;BME280;42964;42.910;23.792;2023-05-23T17:37:07;97237.47;;;21.55;40.29
57086;BME280;42964;42.910;23.792;2023-05-23T17:42:06;97277.75;;;21.59;41.95
57086;BME280;42964;42.910;23.792;2023-05-23T17:47:05;97280.06;;;21.32;43.05
57086;BME280;42964;42.910;23.792;2023-05-23T17:52:04;97280.50;;;21.05;44.63
57086;BME280;42964;42.910;23.792;2023-05-23T17:57:05;97289.50;;;20.66;46.22
57086;BME280;42964;42.910;23.792;2023-05-23T18:02:05;97298.97;;;20.33;46.99
57086;BME280;42964;42.910;23.792;2023-05-23T18:07:05;97303.22;;;19.99;48.09
57086;BME280;42964;42.910;23.792;2023-05-23T18:12:04;97301.66;;;19.35;50.22
57086;BME280;42964;42.910;23.792;2023-05-23T18:17:04;97322.38;;;19.22;51.05
57086;BME280;42964;42.910;23.792;2023-05-23T18:22:03;97330.50;;;18.95;51.86
57086;BME280;42964;42.910;23.792;2023-05-23T18:27:03;97331.59;;;18.68;52.52
57086;BME280;42964;42.910;23.792;2023-05-23T18:32:02;97350.91;;;18.45;53.39
57086;BME280;42964;42.910;23.792;2023-05-23T18:37:01;97350.94;;;18.21;54.23
57086;BME280;42964;42.910;23.792;2023-05-23T18:42:00;97348.16;;;18.02;55.20
57086;BME280;42964;42.910;23.792;2023-05-23T18:46:59;97367.09;;;17.87;56.32
57086;BME280;42964;42.910;23.792;2023-05-23T18:51:58;97373.41;;;17.56;58.12
57086;BME280;42964;42.910;23.792;2023-05-23T18:56:57;97364.59;;;17.33;59.36
57086;BME280;42964;42.910;23.792;2023-05-23T19:01:56;97388.53;;;17.23;58.92
57086;BME280;42964;42.910;23.792;2023-05-23T19:06:57;97399.44;;;17.10;59.20
57086;BME280;42964;42.910;23.792;2023-05-23T19:11:56;97420.06;;;16.93;61.12
57086;BME280;42964;42.910;23.792;2023-05-23T19:16:55;97422.22;;;16.82;61.65
57086;BME280;42964;42.910;23.792;2023-05-23T19:21:54;97409.94;;;16.52;63.35
57086;BME280;42964;42.910;23.792;2023-05-23T19:26:53;97395.78;;;16.30;63.03
57086;BME280;42964;42.910;23.792;2023-05-23T19:31:53;97440.72;;;16.46;63.45
57086;BME280;42964;42.910;23.792;2023-05-23T19:36:52;97448.13;;;16.32;64.33
57086;BME280;42964;42.910;23.792;2023-05-23T19:41:52;97398.78;;;15.86;64.65
57086;BME280;42964;42.910;23.792;2023-05-23T19:46:51;97456.72;;;16.05;65.08
57086;BME280;42964;42.910;23.792;2023-05-23T19:51:50;97475.19;;;15.99;66.19
57086;BME280;42964;42.910;23.792;2023-05-23T19:56:49;97476.31;;;15.91;66.63
57086;BME280;42964;42.910;23.792;2023-05-23T20:01:47;97472.66;;;15.62;70.03
57086;BME280;42964;42.910;23.792;2023-05-23T20:06:46;97460.63;;;15.55;70.23
57086;BME280;42964;42.910;23.792;2023-05-23T20:11:45;97459.38;;;15.37;70.18
57086;BME280;42964;42.910;23.792;2023-05-23T20:16:45;97413.22;;;14.98;70.64
57086;BME280;42964;42.910;23.792;2023-05-23T20:21:44;97457.31;;;15.12;70.38
57086;BME280;42964;42.910;23.792;2023-05-23T20:26:43;97466.00;;;15.14;69.91
57086;BME280;42964;42.910;23.792;2023-05-23T20:31:42;97447.38;;;14.91;70.53
57086;BME280;42964;42.910;23.792;2023-05-23T20:36:41;97465.69;;;14.89;72.65
57086;BME280;42964;42.910;23.792;2023-05-23T20:41:40;97470.47;;;14.70;74.37
57086;BME280;42964;42.910;23.792;2023-05-23T20:46:39;97453.56;;;14.48;74.82
57086;BME280;42964;42.910;23.792;2023-05-23T20:51:38;97474.47;;;14.45;75.65
57086;BME280;42964;42.910;23.792;2023-05-23T20:56:37;97470.34;;;14.34;76.26
57086;BME280;42964;42.910;23.792;2023-05-23T21:01:36;97485.16;;;14.34;76.12
57086;BME280;42964;42.910;23.792;2023-05-23T21:06:36;97482.75;;;14.25;76.12
57086;BME280;42964;42.910;23.792;2023-05-23T21:11:34;97483.69;;;14.20;76.02
57086;BME280;42964;42.910;23.792;2023-05-23T21:16:33;97478.63;;;14.13;76.32
57086;BME280;42964;42.910;23.792;2023-05-23T21:21:32;97485.72;;;14.05;77.94
57086;BME280;42964;42.910;23.792;2023-05-23T21:26:31;97494.50;;;14.01;78.33
57086;BME280;42964;42.910;23.792;2023-05-23T21:31:30;97502.59;;;13.87;79.38
57086;BME280;42964;42.910;23.792;2023-05-23T21:36:29;97495.66;;;13.84;79.27
57086;BME280;42964;42.910;23.792;2023-05-23T21:41:28;97457.00;;;13.61;79.32
57086;BME280;42964;42.910;23.792;2023-05-23T21:46:27;97500.09;;;13.79;79.47
57086;BME280;42964;42.910;23.792;2023-05-23T21:51:26;97506.53;;;13.60;81.33
57086;BME280;42964;42.910;23.792;2023-05-23T21:56:25;97499.69;;;13.54;81.45
57086;BME280;42964;42.910;23.792;2023-05-23T22:01:25;97501.38;;;13.53;81.32
57086;BME280;42964;42.910;23.792;2023-05-23T22:06:24;97501.44;;;13.50;81.31
57086;BME280;42964;42.910;23.792;2023-05-23T22:11:23;97508.44;;;13.48;80.98
57086;BME280;42964;42.910;23.792;2023-05-23T22:16:27;97499.84;;;13.43;82.14
57086;BME280;42964;42.910;23.792;2023-05-23T22:21:26;97510.34;;;13.37;82.50
57086;BME280;42964;42.910;23.792;2023-05-23T22:26:25;97499.16;;;13.30;82.77
57086;BME280;42964;42.910;23.792;2023-05-23T22:31:24;97496.72;;;13.21;83.17
57086;BME280;42964;42.910;23.792;2023-05-23T22:36:24;97492.44;;;13.15;83.15
57086;BME280;42964;42.910;23.792;2023-05-23T22:41:23;97469.25;;;13.00;83.31
57086;BME280;42964;42.910;23.792;2023-05-23T22:46:22;97500.44;;;13.05;83.98
57086;BME280;42964;42.910;23.792;2023-05-23T22:51:21;97491.88;;;12.95;84.61
57086;BME280;42964;42.910;23.792;2023-05-23T22:56:19;97491.94;;;12.92;84.43
57086;BME280;42964;42.910;23.792;2023-05-23T23:01:19;97487.66;;;12.88;85.23
57086;BME280;42964;42.910;23.792;2023-05-23T23:06:18;97478.19;;;12.84;84.90
57086;BME280;42964;42.910;23.792;2023-05-23T23:11:18;97476.56;;;12.75;85.14
57086;BME280;42964;42.910;23.792;2023-05-23T23:16:17;97474.09;;;12.64;85.60
57086;BME280;42964;42.910;23.792;2023-05-23T23:21:17;97467.19;;;12.63;85.09
57086;BME280;42964;42.910;23.792;2023-05-23T23:26:16;97468.09;;;12.61;85.14
57086;BME280;42964;42.910;23.792;2023-05-23T23:31:15;97460.34;;;12.53;85.64
57086;BME280;42964;42.910;23.792;2023-05-23T23:36:13;97457.81;;;12.48;85.87
57086;BME280;42964;42.910;23.792;2023-05-23T23:41:12;97458.78;;;12.43;86.13
57086;BME280;42964;42.910;23.792;2023-05-23T23:46:11;97463.25;;;12.32;87.11
57086;BME280;42964;42.910;23.792;2023-05-23T23:51:10;97459.00;;;12.27;87.66
57086;BME280;42964;42.910;23.792;2023-05-23T23:56:10;97456.41;;;12.20;88.29
